Time;durP1;ratioP1;P1;durP2;ratioP2;P2;SDS_P1;SDS_P2;PMS_P1;PMS_P2;Temp;Humidity;BMP_temperature;BMP_pressure;BME280_temperature;BME280_humidity;BME280_pressure;Samples;Min_cycle;Max_cycle;Signal;HPM_P1;HPM_P2
2023/07/29 00:01:35;;;;;;;3.58;2.40;;;21.80;99.90;;;;;;4954797;28;20109;-68
2023/07/29 00:04:00;;;;;;;2.70;2.53;;;21.80;99.90;;;;;;4955011;28;20050;-67
2023/07/29 00:06:27;;;;;;;4.45;2.25;;;21.80;99.90;;;;;;4953938;29;20461;-67
2023/07/29 00:08:52;;;;;;;2.67;2.40;;;21.80;99.90;;;;;;4955138;29;20019;-69
2023/07/29 00:11:18;;;;;;;3.83;3.22;;;21.80;99.90;;;;;;4954926;29;20055;-67
2023/07/29 00:13:44;;;;;;;4.80;3.35;;;21.80;99.90;;;;;;4953671;29;20031;-67
2023/07/29 00:16:10;;;;;;;4.05;3.65;;;21.80;99.90;;;;;;4954884;29;20436;-67
2023/07/29 00:18:35;;;;;;;4.13;3.75;;;21.90;99.90;;;;;;4955214;28;20035;-67
2023/07/29 00:21:01;;;;;;;9.18;3.53;;;21.90;99.90;;;;;;4953668;28;20027;-67
2023/07/29 00:23:27;;;;;;;4.25;3.30;;;21.90;99.90;;;;;;4954491;28;20387;-67
2023/07/29 00:25:52;;;;;;;3.72;3.40;;;21.90;99.90;;;;;;4954906;28;20031;-67
2023/07/29 00:28:18;;;;;;;4.65;3.42;;;21.90;99.90;;;;;;4954618;28;20063;-67
2023/07/29 00:30:44;;;;;;;6.90;3.42;;;21.90;99.90;;;;;;4954605;29;20031;-67
2023/07/29 00:33:10;;;;;;;4.00;2.92;;;21.90;99.90;;;;;;4954357;29;20027;-68
2023/07/29 00:35:35;;;;;;;3.50;3.00;;;21.90;99.90;;;;;;4954769;29;20062;-67
2023/07/29 00:38:01;;;;;;;8.50;3.22;;;21.90;99.90;;;;;;4954728;28;20031;-67
2023/07/29 00:40:28;;;;;;;3.40;3.10;;;21.90;99.90;;;;;;4954261;28;20065;-67
2023/07/29 00:42:54;;;;;;;6.57;2.55;;;21.90;99.90;;;;;;4953998;28;20049;-67
2023/07/29 00:45:20;;;;;;;3.97;2.80;;;21.90;99.90;;;;;;4954270;28;20439;-67
2023/07/29 00:47:46;;;;;;;3.00;2.42;;;21.80;99.90;;;;;;4954420;29;20039;-67
2023/07/29 00:50:14;;;;;;;3.35;2.85;;;21.80;99.90;;;;;;4954396;28;20066;-68
2023/07/29 00:52:40;;;;;;;2.60;2.40;;;21.80;99.90;;;;;;4954488;29;20035;-67
2023/07/29 00:55:07;;;;;;;3.00;2.60;;;21.90;99.90;;;;;;4954339;29;20031;-67
2023/07/29 00:57:33;;;;;;;2.92;2.53;;;21.90;99.90;;;;;;4954127;28;20026;-67
2023/07/29 00:59:59;;;;;;;3.00;2.80;;;21.90;99.90;;;;;;4954093;28;20492;-67
2023/07/29 01:02:26;;;;;;;3.60;3.25;;;21.90;99.90;;;;;;4953986;28;20077;-67
2023/07/29 01:04:57;;;;;;;8.50;3.53;;;21.90;99.90;;;;;;4954178;28;20024;-67
2023/07/29 01:07:34;;;;;;;4.43;2.65;;;21.90;99.90;;;;;;4954420;28;20042;-67
2023/07/29 01:10:18;;;;;;;3.00;2.80;;;21.90;99.90;;;;;;4954034;29;20446;-68
2023/07/29 01:12:48;;;;;;;4.38;3.55;;;21.80;99.90;;;;;;4954115;28;20062;-67
2023/07/29 01:15:21;;;;;;;3.50;3.20;;;21.90;99.90;;;;;;4954039;29;20392;-67
2023/07/29 01:17:52;;;;;;;3.83;2.78;;;21.90;99.90;;;;;;4954041;28;20392;-67
2023/07/29 01:20:20;;;;;;;5.28;3.50;;;21.80;99.90;;;;;;4953900;28;20102;-67
2023/07/29 01:22:47;;;;;;;3.97;3.55;;;21.80;99.90;;;;;;4953575;29;20035;-67
2023/07/29 01:25:13;;;;;;;5.22;4.00;;;21.80;99.90;;;;;;4953515;28;20018;-67
2023/07/29 01:27:39;;;;;;;3.90;3.50;;;21.80;99.90;;;;;;4953759;28;20486;-67
2023/07/29 01:30:06;;;;;;;3.88;3.53;;;21.80;99.90;;;;;;4953944;29;20051;-67
2023/07/29 01:32:41;;;;;;;4.80;3.25;;;21.80;99.90;;;;;;4968756;28;20476;-66
2023/07/29 01:35:13;;;;;;;4.13;3.22;;;21.80;99.90;;;;;;4973184;28;20027;-67
2023/07/29 01:37:41;;;;;;;3.33;3.00;;;21.80;99.90;;;;;;4975798;28;20030;-68
2023/07/29 01:40:08;;;;;;;3.72;3.33;;;21.70;99.90;;;;;;4976597;28;20449;-67
2023/07/29 01:42:34;;;;;;;3.08;2.78;;;21.60;99.90;;;;;;4976856;28;20035;-67
2023/07/29 01:45:00;;;;;;;4.55;2.58;;;21.60;99.90;;;;;;4976961;28;20106;-68
2023/07/29 01:47:25;;;;;;;4.35;2.70;;;21.50;99.90;;;;;;4976985;28;20431;-67
2023/07/29 01:49:51;;;;;;;2.92;2.38;;;21.50;99.90;;;;;;4976749;28;20486;-67
2023/07/29 01:52:17;;;;;;;3.83;2.35;;;21.50;99.90;;;;;;4976901;28;20039;-67
2023/07/29 01:54:42;;;;;;;6.68;2.70;;;21.50;99.90;;;;;;4976702;28;20061;-67
2023/07/29 01:57:08;;;;;;;3.70;2.58;;;21.50;99.90;;;;;;4970133;28;20065;-67
2023/07/29 01:59:34;;;;;;;4.03;3.00;;;21.40;99.90;;;;;;4957288;28;20086;-67
2023/07/29 02:01:59;;;;;;;2.53;2.33;;;21.40;99.90;;;;;;4955602;29;20035;-68
2023/07/29 02:04:25;;;;;;;3.25;2.38;;;21.40;99.90;;;;;;4957268;28;20361;-67
2023/07/29 02:06:51;;;;;;;3.33;2.70;;;21.40;99.90;;;;;;4957076;29;20599;-67
2023/07/29 02:09:17;;;;;;;3.00;2.45;;;21.30;99.90;;;;;;4957322;29;20034;-67
2023/07/29 02:11:42;;;;;;;3.95;2.35;;;21.30;99.90;;;;;;4956860;29;20027;-67
2023/07/29 02:14:08;;;;;;;2.70;2.50;;;21.30;99.90;;;;;;4957214;29;20031;-67
2023/07/29 02:16:34;;;;;;;3.22;2.67;;;21.30;99.90;;;;;;4957030;29;20380;-67
2023/07/29 02:19:00;;;;;;;4.28;2.50;;;21.20;99.90;;;;;;4956140;29;20027;-68
2023/07/29 02:21:25;;;;;;;4.28;2.45;;;21.20;99.90;;;;;;4956676;29;20035;-67
2023/07/29 02:23:51;;;;;;;3.25;2.92;;;21.20;99.90;;;;;;4955901;28;20388;-67
2023/07/29 02:26:17;;;;;;;3.30;2.90;;;21.20;99.90;;;;;;4955425;29;20023;-67
2023/07/29 02:28:43;;;;;;;4.13;2.80;;;21.20;99.90;;;;;;4957015;28;20392;-67
2023/07/29 02:31:16;;;;;;;4.88;2.70;;;21.30;99.90;;;;;;4956649;29;20034;-67
2023/07/29 02:33:42;;;;;;;3.95;2.90;;;21.20;99.90;;;;;;4956769;28;20778;-67
2023/07/29 02:36:07;;;;;;;3.15;2.67;;;21.20;99.90;;;;;;4956674;29;20539;-67
2023/07/29 02:38:33;;;;;;;6.60;3.30;;;21.20;99.90;;;;;;4956615;29;20024;-67
2023/07/29 02:40:59;;;;;;;2.97;2.78;;;21.20;99.90;;;;;;4956305;29;20444;-67
2023/07/29 02:43:24;;;;;;;3.67;3.00;;;21.20;99.90;;;;;;4956894;29;20370;-68
2023/07/29 02:45:50;;;;;;;4.75;2.70;;;21.20;99.90;;;;;;4956688;29;20357;-67
2023/07/29 02:48:15;;;;;;;2.97;2.78;;;21.20;99.90;;;;;;4955244;28;20122;-67
2023/07/29 02:50:41;;;;;;;3.03;2.28;;;21.10;99.90;;;;;;4956460;29;20035;-67
2023/07/29 02:53:07;;;;;;;5.07;2.70;;;21.10;99.90;;;;;;4956621;28;20065;-67
2023/07/29 02:55:32;;;;;;;2.85;2.65;;;21.10;99.90;;;;;;4956417;29;20031;-67
2023/07/29 02:57:58;;;;;;;3.53;2.65;;;21.10;99.90;;;;;;4956329;28;20027;-67
2023/07/29 03:00:24;;;;;;;3.38;3.08;;;21.00;99.90;;;;;;4956269;29;20461;-67
2023/07/29 03:02:50;;;;;;;4.75;2.72;;;21.00;99.90;;;;;;4955988;29;20031;-69
2023/07/29 03:05:16;;;;;;;5.82;2.38;;;21.00;99.90;;;;;;4956451;28;20486;-67
2023/07/29 03:07:41;;;;;;;3.33;2.80;;;21.00;99.90;;;;;;4956293;28;20058;-67
2023/07/29 03:10:07;;;;;;;2.50;2.28;;;21.00;99.90;;;;;;4956056;29;20106;-67
2023/07/29 03:12:33;;;;;;;3.20;2.42;;;20.90;99.90;;;;;;4956036;28;20713;-67
2023/07/29 03:15:00;;;;;;;5.35;2.20;;;20.90;99.90;;;;;;4956183;29;20046;-67
2023/07/29 03:17:26;;;;;;;3.28;2.22;;;20.90;99.90;;;;;;4956120;29;20105;-67
2023/07/29 03:19:52;;;;;;;4.78;2.45;;;20.90;99.90;;;;;;4956085;29;20027;-67
2023/07/29 03:22:18;;;;;;;3.00;2.70;;;20.90;99.90;;;;;;4955930;29;20042;-67
2023/07/29 03:24:43;;;;;;;3.38;2.47;;;20.80;99.90;;;;;;4955754;29;20041;-67
2023/07/29 03:27:09;;;;;;;7.20;2.92;;;20.80;99.90;;;;;;4955707;28;20035;-68
2023/07/29 03:29:35;;;;;;;4.32;2.90;;;20.80;99.90;;;;;;4955841;29;20098;-67
2023/07/29 03:32:01;;;;;;;3.13;2.20;;;20.80;99.90;;;;;;4954917;28;20034;-67
2023/07/29 03:34:27;;;;;;;5.47;2.70;;;20.70;99.90;;;;;;4955786;29;20082;-67
2023/07/29 03:36:52;;;;;;;5.80;2.50;;;20.70;99.90;;;;;;4955873;28;20082;-66
2023/07/29 03:39:18;;;;;;;5.20;3.03;;;20.70;99.90;;;;;;4955426;28;20499;-68
2023/07/29 03:41:44;;;;;;;3.33;2.83;;;20.70;99.90;;;;;;4955571;28;20074;-67
2023/07/29 03:44:09;;;;;;;3.28;2.90;;;20.60;99.90;;;;;;4955598;29;20098;-67
2023/07/29 03:46:35;;;;;;;3.90;2.83;;;20.60;99.90;;;;;;4955677;29;20043;-66
2023/07/29 03:49:00;;;;;;;5.68;3.00;;;20.60;99.90;;;;;;4955516;28;20519;-67
2023/07/29 03:51:26;;;;;;;3.45;2.95;;;20.50;99.90;;;;;;4955556;29;20118;-67
2023/07/29 03:53:52;;;;;;;6.40;3.28;;;20.50;99.90;;;;;;4955199;29;20472;-67
2023/07/29 03:56:17;;;;;;;5.95;3.20;;;20.50;99.90;;;;;;4955566;29;20165;-67
2023/07/29 03:58:45;;;;;;;4.05;3.22;;;20.40;99.90;;;;;;4954555;28;20023;-67
2023/07/29 04:01:10;;;;;;;3.33;2.95;;;20.40;99.90;;;;;;4955206;28;20046;-67
2023/07/29 04:03:36;;;;;;;3.45;2.95;;;20.40;99.90;;;;;;4951923;28;20520;-67
2023/07/29 04:06:02;;;;;;;6.57;3.50;;;20.30;99.90;;;;;;4944045;28;20024;-67
2023/07/29 04:08:27;;;;;;;2.88;2.67;;;20.30;99.90;;;;;;4935436;29;20105;-67
2023/07/29 04:10:53;;;;;;;5.35;3.20;;;20.30;99.90;;;;;;4935903;29;20488;-67
2023/07/29 04:13:19;;;;;;;4.63;3.00;;;20.30;99.90;;;;;;4935846;29;20024;-67
2023/07/29 04:15:45;;;;;;;3.15;2.60;;;20.30;99.90;;;;;;4935862;29;20023;-67
2023/07/29 04:18:11;;;;;;;3.33;2.72;;;20.30;99.90;;;;;;4935617;29;20147;-67
2023/07/29 04:20:36;;;;;;;5.63;2.80;;;20.30;99.90;;;;;;4935889;29;20118;-67
2023/07/29 04:23:02;;;;;;;4.15;2.72;;;20.30;99.90;;;;;;4935446;29;20039;-67
2023/07/29 04:25:28;;;;;;;5.97;2.95;;;20.30;99.90;;;;;;4935714;29;20083;-66
2023/07/29 04:27:54;;;;;;;5.47;3.15;;;20.20;99.90;;;;;;4934611;29;20075;-68
2023/07/29 04:30:19;;;;;;;2.95;2.65;;;20.20;99.90;;;;;;4945836;29;20485;-67
2023/07/29 04:32:48;;;;;;;5.45;3.80;;;20.20;99.90;;;;;;4950109;29;20127;-67
2023/07/29 04:35:14;;;;;;;10.77;3.45;;;20.20;99.90;;;;;;4935643;29;20066;-66
2023/07/29 04:37:40;;;;;;;5.35;3.45;;;20.20;99.90;;;;;;4943950;29;20125;-68
2023/07/29 04:40:06;;;;;;;8.65;3.63;;;20.20;99.90;;;;;;4937365;28;20036;-67
2023/07/29 04:42:32;;;;;;;5.50;2.97;;;20.10;99.90;;;;;;4935227;29;20039;-67
2023/07/29 04:44:58;;;;;;;3.78;3.47;;;20.10;99.90;;;;;;4935307;29;20031;-67
2023/07/29 04:47:23;;;;;;;4.13;3.08;;;20.10;99.90;;;;;;4935126;29;20043;-67
2023/07/29 04:49:49;;;;;;;5.50;2.83;;;20.10;99.90;;;;;;4935136;29;20144;-67
2023/07/29 04:52:15;;;;;;;3.78;2.80;;;20.10;99.90;;;;;;4935138;29;20031;-66
2023/07/29 04:54:41;;;;;;;7.22;3.15;;;20.10;99.90;;;;;;4935176;29;20473;-67
2023/07/29 04:57:06;;;;;;;4.28;2.50;;;20.10;99.90;;;;;;4940793;28;20019;-67
2023/07/29 04:59:32;;;;;;;5.18;2.70;;;20.00;99.90;;;;;;4954281;29;20163;-66
2023/07/29 05:01:58;;;;;;;4.22;2.70;;;20.00;99.90;;;;;;4953839;29;20039;-67
2023/07/29 05:04:23;;;;;;;3.28;2.60;;;20.00;99.90;;;;;;4954150;28;20038;-68
2023/07/29 05:06:50;;;;;;;4.60;2.67;;;20.10;99.90;;;;;;4953970;29;20035;-67
2023/07/29 05:09:17;;;;;;;3.53;2.88;;;20.10;99.90;;;;;;4954228;29;20058;-67
2023/07/29 05:11:48;;;;;;;6.00;2.70;;;20.10;99.90;;;;;;4953209;28;20023;-67
2023/07/29 05:14:15;;;;;;;6.47;2.60;;;20.10;99.90;;;;;;4954154;28;20485;-67
2023/07/29 05:16:41;;;;;;;4.53;2.65;;;20.10;99.90;;;;;;4954134;28;20078;-68
2023/07/29 05:19:07;;;;;;;2.53;2.33;;;20.00;99.90;;;;;;4954047;29;20429;-67
2023/07/29 05:21:33;;;;;;;2.35;2.03;;;20.10;99.90;;;;;;4953646;29;20456;-67
2023/07/29 05:23:58;;;;;;;4.38;2.42;;;20.10;99.90;;;;;;4953912;28;20396;-69
2023/07/29 05:26:24;;;;;;;3.83;2.30;;;20.00;99.90;;;;;;4953854;29;20011;-70
2023/07/29 05:28:50;;;;;;;2.70;2.00;;;20.00;99.90;;;;;;4953630;28;20027;-68
2023/07/29 05:31:15;;;;;;;4.55;2.35;;;20.10;99.90;;;;;;4953154;28;20078;-67
2023/07/29 05:33:41;;;;;;;4.85;2.40;;;20.00;99.90;;;;;;4953733;28;20027;-67
2023/07/29 05:36:06;;;;;;;4.07;2.33;;;20.00;99.90;;;;;;4952456;28;20106;-67
2023/07/29 05:38:32;;;;;;;3.38;2.40;;;20.00;99.90;;;;;;4938192;28;20473;-67
2023/07/29 05:40:58;;;;;;;2.95;2.35;;;20.00;99.90;;;;;;4934117;29;20039;-67
2023/07/29 05:43:27;;;;;;;4.88;2.03;;;20.10;99.90;;;;;;4934708;29;20039;-67
2023/07/29 05:45:53;;;;;;;2.70;1.88;;;20.10;99.90;;;;;;4941027;29;20034;-71
2023/07/29 05:48:19;;;;;;;2.58;2.38;;;20.00;99.90;;;;;;4951968;29;20027;-68
2023/07/29 05:50:45;;;;;;;5.05;2.70;;;20.00;99.90;;;;;;4953400;28;20066;-68
2023/07/29 05:53:11;;;;;;;5.90;2.20;;;20.20;99.90;;;;;;4944439;28;20055;-70
2023/07/29 05:55:37;;;;;;;2.65;2.40;;;20.10;99.90;;;;;;4933892;29;20059;-72
2023/07/29 05:58:02;;;;;;;2.53;1.90;;;20.20;99.90;;;;;;4947493;28;20109;-69
2023/07/29 06:00:28;;;;;;;3.90;2.05;;;20.20;99.90;;;;;;4953385;29;20103;-68
2023/07/29 06:02:54;;;;;;;2.45;1.85;;;20.10;99.90;;;;;;4952882;28;20031;-68
2023/07/29 06:05:19;;;;;;;2.03;1.60;;;20.00;99.90;;;;;;4953511;28;20042;-69
2023/07/29 06:07:47;;;;;;;4.55;2.15;;;20.10;99.90;;;;;;4953292;28;20106;-67
2023/07/29 06:10:14;;;;;;;3.47;2.33;;;20.00;99.90;;;;;;4953215;28;20106;-67
2023/07/29 06:12:39;;;;;;;3.15;2.28;;;20.00;99.90;;;;;;4936559;28;20036;-68
2023/07/29 06:15:06;;;;;;;2.35;2.15;;;20.00;99.90;;;;;;4934292;29;20035;-68
2023/07/29 06:17:31;;;;;;;3.08;2.00;;;20.10;99.90;;;;;;4933931;29;20103;-70
2023/07/29 06:19:57;;;;;;;2.28;2.05;;;20.00;99.90;;;;;;4933066;29;20163;-69
2023/07/29 06:22:22;;;;;;;3.75;2.10;;;20.00;99.90;;;;;;4935209;29;20378;-70
2023/07/29 06:24:48;;;;;;;1.80;1.58;;;20.10;99.90;;;;;;4937790;29;20489;-70
2023/07/29 06:27:14;;;;;;;6.22;2.40;;;20.00;99.90;;;;;;4937488;29;20039;-67
2023/07/29 06:29:39;;;;;;;3.08;1.77;;;20.20;99.90;;;;;;4937696;29;20028;-69
2023/07/29 06:32:05;;;;;;;1.85;1.52;;;20.10;99.90;;;;;;4937113;29;20079;-71
2023/07/29 06:34:31;;;;;;;3.42;2.00;;;20.10;99.90;;;;;;4964670;28;20121;-69
2023/07/29 06:36:57;;;;;;;4.20;1.67;;;20.10;99.90;;;;;;4975995;28;20027;-68
2023/07/29 06:39:22;;;;;;;2.65;1.50;;;20.20;99.90;;;;;;4975953;28;20030;-67
2023/07/29 06:41:48;;;;;;;1.83;1.33;;;20.20;99.90;;;;;;4975051;28;20118;-69
2023/07/29 06:44:14;;;;;;;1.67;1.50;;;20.20;99.90;;;;;;4975454;28;20085;-68
2023/07/29 06:46:39;;;;;;;4.43;1.63;;;20.30;99.90;;;;;;4974367;28;20119;-71
2023/07/29 06:49:05;;;;;;;4.32;1.55;;;20.40;99.90;;;;;;4975797;28;20101;-68
2023/07/29 06:51:34;;;;;;;1.63;1.50;;;20.50;99.90;;;;;;4975519;28;20427;-67
2023/07/29 06:54:00;;;;;;;1.80;1.40;;;20.60;99.90;;;;;;4975748;28;20506;-68
2023/07/29 06:56:26;;;;;;;1.92;1.50;;;20.70;99.90;;;;;;4974955;28;20031;-67
2023/07/29 06:58:52;;;;;;;1.55;1.45;;;20.70;99.90;;;;;;4956377;29;20031;-68
2023/07/29 07:01:18;;;;;;;4.55;1.55;;;20.70;99.90;;;;;;4955745;28;20031;-68
2023/07/29 07:03:43;;;;;;;1.75;1.50;;;20.80;99.90;;;;;;4955721;28;20107;-68
2023/07/29 07:06:09;;;;;;;1.67;1.38;;;20.80;99.90;;;;;;4955953;28;20038;-67
2023/07/29 07:08:35;;;;;;;1.50;1.30;;;20.70;99.90;;;;;;4956196;28;20035;-68
2023/07/29 07:11:00;;;;;;;3.22;1.23;;;20.90;99.90;;;;;;4956100;28;20098;-67
2023/07/29 07:13:26;;;;;;;1.30;1.20;;;21.00;99.90;;;;;;4955616;28;20527;-69
2023/07/29 07:15:55;;;;;;;1.42;1.10;;;21.10;99.90;;;;;;4955916;28;20543;-70
2023/07/29 07:18:22;;;;;;;3.08;1.27;;;21.20;99.90;;;;;;4955948;28;20028;-67
2023/07/29 07:20:49;;;;;;;1.52;1.23;;;21.40;99.90;;;;;;4954373;28;20464;-68
2023/07/29 07:23:15;;;;;;;1.77;1.10;;;21.60;99.90;;;;;;4955570;28;20078;-69
2023/07/29 07:25:42;;;;;;;1.50;1.40;;;21.60;99.90;;;;;;4954511;28;20024;-68
2023/07/29 07:28:08;;;;;;;1.55;1.20;;;21.60;99.90;;;;;;4955563;29;20031;-67
2023/07/29 07:30:34;;;;;;;1.15;1.02;;;21.70;99.90;;;;;;4955536;28;20031;-68
2023/07/29 07:33:00;;;;;;;2.05;1.30;;;21.70;99.90;;;;;;4954862;28;20361;-67
2023/07/29 07:35:26;;;;;;;1.67;1.30;;;21.70;99.90;;;;;;4955089;28;20146;-70
2023/07/29 07:37:52;;;;;;;1.30;1.20;;;21.70;99.90;;;;;;4954387;28;20484;-69
2023/07/29 07:40:18;;;;;;;3.88;1.00;;;21.70;99.90;;;;;;4955433;29;20484;-70
2023/07/29 07:42:43;;;;;;;1.45;1.15;;;21.80;99.90;;;;;;4955385;29;20035;-70
2023/07/29 07:45:09;;;;;;;3.35;1.67;;;21.90;99.90;;;;;;4955342;28;20103;-68
2023/07/29 07:47:35;;;;;;;1.77;1.08;;;22.10;99.90;;;;;;4955456;29;20039;-67
2023/07/29 07:50:00;;;;;;;0.95;0.95;;;22.20;99.90;;;;;;4955248;29;20024;-69
2023/07/29 07:52:27;;;;;;;1.02;0.90;;;22.30;99.90;;;;;;4955435;28;20035;-68
2023/07/29 07:54:54;;;;;;;3.38;1.27;;;22.50;99.90;;;;;;4954081;28;20047;-68
2023/07/29 07:57:22;;;;;;;2.97;1.40;;;22.40;99.90;;;;;;4954227;28;20031;-68
2023/07/29 07:59:48;;;;;;;2.88;1.30;;;22.30;99.90;;;;;;4945908;29;20022;-70
2023/07/29 08:02:14;;;;;;;2.58;1.10;;;22.40;99.90;;;;;;4951952;29;20035;-67
2023/07/29 08:04:40;;;;;;;2.65;0.90;;;22.30;99.90;;;;;;4936890;28;20032;-68
2023/07/29 08:07:06;;;;;;;1.95;1.30;;;22.30;99.90;;;;;;4936072;29;20091;-70
2023/07/29 08:09:31;;;;;;;1.33;1.10;;;22.30;99.90;;;;;;4935755;29;20079;-68
2023/07/29 08:11:57;;;;;;;1.40;1.30;;;22.40;99.90;;;;;;4935798;29;20119;-69
2023/07/29 08:14:23;;;;;;;2.45;1.48;;;22.40;99.90;;;;;;4935451;29;20035;-67
2023/07/29 08:16:48;;;;;;;1.13;1.02;;;22.50;99.90;;;;;;4935710;29;20027;-68
2023/07/29 08:19:14;;;;;;;26.95;2.35;;;22.40;99.90;;;;;;4935995;29;20066;-72
2023/07/29 08:22:16;;;;;;;2.10;1.20;;;22.40;99.90;;;;;;4942609;28;20043;-70
2023/07/29 08:24:44;;;;;;;1.05;1.00;;;22.40;99.90;;;;;;4934591;28;20047;-68
2023/07/29 08:27:09;;;;;;;3.33;1.20;;;22.30;99.90;;;;;;4943574;29;20091;-68
2023/07/29 08:29:35;;;;;;;7.25;1.30;;;22.30;99.90;;;;;;4931987;28;20059;-71
2023/07/29 08:32:01;;;;;;;1.20;1.05;;;22.40;99.90;;;;;;4941732;28;20118;-75
2023/07/29 08:34:26;;;;;;;3.20;1.00;;;22.50;99.90;;;;;;4952300;28;20054;-68
2023/07/29 08:36:52;;;;;;;2.80;1.15;;;22.50;99.90;;;;;;4954558;28;20538;-67
2023/07/29 08:39:18;;;;;;;1.50;1.40;;;22.50;99.90;;;;;;4938119;28;20034;-68
2023/07/29 08:41:43;;;;;;;2.67;1.15;;;22.60;99.90;;;;;;4935190;29;20032;-69
2023/07/29 08:44:22;;;;;;;1.25;1.13;;;22.60;99.90;;;;;;4934790;29;20366;-69
2023/07/29 08:46:48;;;;;;;1.60;1.50;;;22.40;99.90;;;;;;4935232;29;20065;-70
2023/07/29 08:49:15;;;;;;;2.70;1.48;;;22.30;99.90;;;;;;4943982;29;20380;-70
2023/07/29 08:51:42;;;;;;;2.63;1.30;;;22.30;99.90;;;;;;4956612;28;20063;-69
2023/07/29 08:54:10;;;;;;;1.30;1.15;;;22.40;99.90;;;;;;4946929;28;20060;-71
2023/07/29 08:56:36;;;;;;;1.38;1.00;;;22.50;99.90;;;;;;4954144;28;20034;-68
2023/07/29 08:59:04;;;;;;;1.20;0.93;;;22.50;99.90;;;;;;4953493;28;20626;-68
2023/07/29 09:01:30;;;;;;;2.40;1.20;;;22.60;99.90;;;;;;4953901;28;20054;-68
2023/07/29 09:03:56;;;;;;;1.40;1.30;;;22.60;99.90;;;;;;4954304;29;20054;-71
2023/07/29 09:06:23;;;;;;;1.67;1.02;;;22.70;99.90;;;;;;4953762;28;20496;-69
2023/07/29 09:08:50;;;;;;;1.25;0.95;;;22.80;99.90;;;;;;4953438;28;20476;-69
2023/07/29 09:11:17;;;;;;;1.58;1.27;;;22.80;99.90;;;;;;4952511;28;20126;-68
2023/07/29 09:13:43;;;;;;;1.35;1.15;;;23.00;99.90;;;;;;4953699;28;20066;-69
2023/07/29 09:16:10;;;;;;;4.25;1.02;;;23.10;99.90;;;;;;4953999;28;20461;-68
2023/07/29 09:18:35;;;;;;;1.33;1.13;;;23.50;99.90;;;;;;4953761;28;20066;-69
2023/07/29 09:21:01;;;;;;;1.02;0.93;;;23.50;99.90;;;;;;4953691;29;20114;-69
2023/07/29 09:23:28;;;;;;;1.02;1.00;;;23.40;99.90;;;;;;4954138;28;20078;-70
2023/07/29 09:26:03;;;;;;;0.90;0.90;;;23.60;99.90;;;;;;4953854;28;20046;-69
2023/07/29 09:28:36;;;;;;;1.70;1.02;;;23.60;99.90;;;;;;4953582;28;20519;-69
2023/07/29 09:31:02;;;;;;;2.10;1.13;;;23.60;99.90;;;;;;4951666;29;20027;-68
2023/07/29 09:33:29;;;;;;;1.10;0.90;;;23.70;99.90;;;;;;4953699;28;20027;-69
2023/07/29 09:35:54;;;;;;;1.25;0.90;;;24.00;99.90;;;;;;4952381;29;20038;-68
2023/07/29 09:38:27;;;;;;;1.50;1.13;;;24.10;99.90;;;;;;4953641;28;20027;-71
2023/07/29 09:40:56;;;;;;;1.40;1.08;;;24.10;99.90;;;;;;4953548;29;20022;-69
2023/07/29 09:43:28;;;;;;;1.30;1.10;;;24.20;99.90;;;;;;4953598;28;20042;-69
2023/07/29 09:45:54;;;;;;;;;;;24.50;99.90;;;;;;4952116;28;20033;-69
2023/07/29 09:48:22;;;;;;;1.33;1.23;;;24.70;99.90;;;;;;4947735;29;20369;-69
2023/07/29 09:50:48;;;;;;;2.75;1.20;;;24.60;99.90;;;;;;4934974;28;20090;-69
2023/07/29 09:53:14;;;;;;;1.35;1.25;;;24.70;99.90;;;;;;4933372;29;20032;-69
2023/07/29 09:55:45;;;;;;;1.13;0.90;;;24.90;99.90;;;;;;4949682;28;20151;-70
2023/07/29 09:58:11;;;;;;;1.70;1.17;;;24.90;99.90;;;;;;4955120;28;20019;-69
2023/07/29 10:00:38;;;;;;;4.30;1.52;;;24.80;99.90;;;;;;4957034;28;20038;-70
2023/07/29 10:03:04;;;;;;;2.53;1.33;;;25.00;99.90;;;;;;4957005;28;20504;-71
2023/07/29 10:05:30;;;;;;;2.65;1.70;;;25.10;99.90;;;;;;4956975;28;20028;-69
2023/07/29 10:07:56;;;;;;;1.83;1.30;;;25.20;99.90;;;;;;4957309;29;20035;-70
2023/07/29 10:10:23;;;;;;;2.97;1.50;;;25.20;99.90;;;;;;4955640;29;20023;-70
2023/07/29 10:12:50;;;;;;;1.63;1.23;;;25.00;99.90;;;;;;4957090;28;20050;-71
2023/07/29 10:15:15;;;;;;;2.50;1.52;;;25.00;99.90;;;;;;4957379;28;20024;-71
2023/07/29 10:17:41;;;;;;;1.52;1.38;;;24.90;99.90;;;;;;4956642;28;20024;-69
2023/07/29 10:20:11;;;;;;;2.05;1.42;;;24.70;99.90;;;;;;4956604;28;20057;-70
2023/07/29 10:22:39;;;;;;;1.52;1.35;;;24.70;99.90;;;;;;4956996;28;20031;-68
2023/07/29 10:25:08;;;;;;;1.85;1.30;;;24.70;99.90;;;;;;4956733;28;20468;-70
2023/07/29 10:27:43;;;;;;;1.58;1.30;;;24.80;99.90;;;;;;4956933;28;20031;-68
2023/07/29 10:30:12;;;;;;;1.58;1.20;;;25.00;99.90;;;;;;4956572;29;20058;-69
2023/07/29 10:32:38;;;;;;;2.17;1.42;;;25.00;99.90;;;;;;4956670;28;20102;-70
2023/07/29 10:35:05;;;;;;;1.52;1.40;;;24.80;99.90;;;;;;4956845;29;20520;-69
2023/07/29 10:37:30;;;;;;;3.05;1.50;;;24.90;99.90;;;;;;4956661;28;20035;-69
2023/07/29 10:39:56;;;;;;;1.33;1.20;;;24.90;99.90;;;;;;4956498;29;20054;-69
2023/07/29 10:42:22;;;;;;;1.92;1.33;;;24.80;99.90;;;;;;4956280;29;20399;-71
2023/07/29 10:44:52;;;;;;;1.73;1.20;;;24.70;99.90;;;;;;4925867;28;20128;-70
2023/07/29 10:47:17;;;;;;;2.53;1.40;;;24.60;99.90;;;;;;4939742;28;20077;-73
2023/07/29 10:49:49;;;;;;;1.83;1.40;;;24.80;99.90;;;;;;4949314;28;20443;-70
2023/07/29 10:52:17;;;;;;;2.35;1.30;;;24.90;99.90;;;;;;4950060;29;20058;-73
2023/07/29 10:54:47;;;;;;;1.80;1.52;;;25.20;99.90;;;;;;4949386;28;20465;-70
2023/07/29 10:57:41;;;;;;;2.75;1.67;;;25.40;99.90;;;;;;4949577;28;20023;-69
2023/07/29 11:00:07;;;;;;;;;;;25.10;99.90;;;;;;4946181;28;20039;-69
2023/07/29 11:02:38;;;;;;;1.40;1.30;;;25.20;99.90;;;;;;4948608;29;19918;-71
2023/07/29 11:05:15;;;;;;;2.33;1.30;;;25.20;99.90;;;;;;4949311;29;20028;-74
2023/07/29 11:07:48;;;;;;;2.70;1.48;;;25.00;99.90;;;;;;4949547;28;20061;-71
2023/07/29 11:10:16;;;;;;;2.67;1.20;;;24.80;99.90;;;;;;4954266;28;20023;-69
2023/07/29 11:12:47;;;;;;;1.70;1.60;;;24.80;99.90;;;;;;4955021;28;20094;-70
2023/07/29 11:15:14;;;;;;;1.80;1.30;;;24.80;99.90;;;;;;4955990;28;20551;-69
2023/07/29 11:17:48;;;;;;;1.90;1.45;;;24.90;99.90;;;;;;4955396;28;20062;-71
2023/07/29 11:20:15;;;;;;;2.42;1.05;;;25.20;99.90;;;;;;4955800;28;20030;-70
2023/07/29 11:22:41;;;;;;;2.60;1.48;;;25.50;99.90;;;;;;4955341;28;20039;-72
2023/07/29 11:25:14;;;;;;;2.38;1.55;;;25.80;99.90;;;;;;4955435;28;20027;-70
2023/07/29 11:27:40;;;;;;;1.33;1.17;;;25.70;99.90;;;;;;4955668;28;20043;-71
2023/07/29 11:30:08;;;;;;;3.05;1.50;;;25.60;99.90;;;;;;4955326;28;20026;-68
2023/07/29 11:32:35;;;;;;;1.98;1.50;;;25.70;99.90;;;;;;4952183;28;20063;-69
2023/07/29 11:35:04;;;;;;;2.53;1.55;;;25.50;99.90;;;;;;4953802;29;20019;-71
2023/07/29 11:37:29;;;;;;;4.05;1.88;;;25.40;99.90;;;;;;4953128;28;20027;-70
2023/07/29 11:39:55;;;;;;;1.33;1.23;;;25.30;99.90;;;;;;4955653;28;20147;-69
2023/07/29 11:42:21;;;;;;;2.95;1.50;;;24.90;99.90;;;;;;4952556;28;20081;-68
2023/07/29 11:44:47;;;;;;;1.90;1.40;;;24.60;99.90;;;;;;4954078;28;20533;-71
2023/07/29 11:47:13;;;;;;;1.92;1.70;;;24.50;99.90;;;;;;4953186;29;20030;-71
2023/07/29 11:49:40;;;;;;;1.80;1.70;;;24.60;99.90;;;;;;4955164;28;20027;-69
2023/07/29 11:52:08;;;;;;;1.92;1.70;;;24.50;99.90;;;;;;4953961;28;20044;-68
2023/07/29 11:54:38;;;;;;;1.75;1.65;;;24.70;99.90;;;;;;4955217;28;20031;-68
2023/07/29 11:57:10;;;;;;;2.25;1.70;;;24.70;99.90;;;;;;4955065;28;20074;-69
2023/07/29 11:59:37;;;;;;;4.20;1.80;;;24.80;99.90;;;;;;4955259;28;20118;-68
2023/07/29 12:02:10;;;;;;;2.22;1.65;;;24.90;99.90;;;;;;4954654;28;20396;-69
2023/07/29 12:04:38;;;;;;;2.30;1.50;;;24.90;99.90;;;;;;4954898;28;20070;-69
2023/07/29 12:07:05;;;;;;;3.88;1.90;;;24.90;99.90;;;;;;4954019;29;20071;-69
2023/07/29 12:09:31;;;;;;;1.88;1.60;;;24.80;99.90;;;;;;4953122;28;20106;-68
2023/07/29 12:11:57;;;;;;;2.05;1.80;;;24.80;99.90;;;;;;4954207;28;20563;-70
2023/07/29 12:14:27;;;;;;;2.90;1.70;;;24.70;99.90;;;;;;4953732;28;20051;-69
2023/07/29 12:16:53;;;;;;;2.95;1.85;;;24.50;99.90;;;;;;4953329;28;20035;-71
2023/07/29 12:19:19;;;;;;;4.20;2.90;;;24.40;99.90;;;;;;4954277;28;20828;-75
2023/07/29 12:21:45;;;;;;;4.15;2.22;;;24.30;99.90;;;;;;4954241;28;20031;-72
2023/07/29 12:24:14;;;;;;;2.95;2.47;;;24.10;99.90;;;;;;4954894;28;20519;-73
2023/07/29 12:26:41;;;;;;;5.15;2.80;;;24.00;99.90;;;;;;4954759;28;20162;-73
2023/07/29 12:29:14;;;;;;;3.17;2.60;;;23.80;99.90;;;;;;4954287;28;20097;-72
2023/07/29 12:31:40;;;;;;;2.60;2.40;;;23.70;99.90;;;;;;4954568;28;20081;-72
2023/07/29 12:34:06;;;;;;;4.32;2.58;;;23.70;99.90;;;;;;4954412;29;20435;-73
2023/07/29 12:36:46;;;;;;;5.97;2.90;;;23.50;99.90;;;;;;4953116;28;20043;-72
2023/07/29 12:39:23;;;;;;;3.10;2.28;;;23.40;99.90;;;;;;4954437;28;20023;-73
2023/07/29 12:41:50;;;;;;;3.10;2.80;;;23.30;99.90;;;;;;4953932;28;20054;-74
2023/07/29 12:44:16;;;;;;;3.35;2.88;;;23.30;99.90;;;;;;4953135;28;20032;-74
2023/07/29 12:46:42;;;;;;;3.38;3.10;;;23.40;99.90;;;;;;4953084;28;20646;-73